Portada
METAR-TAF:

METAR-TAF

Aeroports :

Labuan, Malàisia

latitud: 05-18N, longitud: 115-15E, altitud: 30 m

Observació

L'informe es va fer fa 23 minuts, a les 23:00 UTC
Vent 2 kt amb direcció variable
Temperatura 26°C
Humitat 89%
Pressió 1010 hPa
Visibilitat: 5000 m
Escasses núvols a una alçada de 1400 ft
Núvols disperses a una alçada de 14000 ft
Cel ennuvolat a una alçada de 28000 ft
calitja

METAR: WBKL 152300Z VRB02KT 5000 HZ FEW014 SCT140 BKN280 26/24 Q1010

Hora: 07:23 (23:23 UTC)

Pronòstic

L'informe es va fer fa 6 hores i 23 minuts, a les 17:00 UTC
Pronòstic vàlid del 15 a les 18 UTC al 16 a les 18 UTC
Vent 3 kt amb direcció variable
Visibilitat: 4000 m
Escasses núvols a una alçada de 1500 ft
calitja

TAF: WBKL 151700Z 1518/1618 VRB03KT 4000 HZ FEW015

Observacions i pronòstics meteorològics de més de 4000 aeroports (METAR i TAF).

Les estacions disponibles són els punts grocs i vermells al mapa.

Posi el ratolí al punt desitjat per veure el nom de l'estació.

Feu clic per veure les observacions i els pronòstics meteorològics.

Per canviar el mapa: feu clic els botons verds amb una creu de color negre per apropar; al botó verd amb un guió per allunyar la imatge; o en les fletxes verdes per a mapes adjacents.


METAR-TAF: